Time;durP1;ratioP1;P1;durP2;ratioP2;P2;SDS_P1;SDS_P2;PMS_P1;PMS_P2;Temp;Humidity;BMP_temperature;BMP_pressure;BME280_temperature;BME280_humidity;BME280_pressure;Samples;Min_cycle;Max_cycle;Signal;HPM_P1;HPM_P2
2021/03/17 00:00:48;;;;;;;2.60;2.40;;;5.30;74.90;;;;;;4922427;29;20206;-76
2021/03/17 00:03:15;;;;;;;2.38;2.17;;;5.20;74.60;;;;;;4921924;29;20232;-75
2021/03/17 00:05:43;;;;;;;3.55;2.35;;;5.20;75.70;;;;;;4922334;29;20228;-76
2021/03/17 00:08:10;;;;;;;2.33;2.00;;;5.10;75.00;;;;;;4908608;29;20231;-80
2021/03/17 00:10:42;;;;;;;2.60;2.30;;;5.10;75.40;;;;;;4907305;29;20212;-78
2021/03/17 00:13:08;;;;;;;2.53;2.33;;;5.10;75.90;;;;;;4917097;29;20235;-77
2021/03/17 00:15:39;;;;;;;2.50;2.30;;;5.00;75.40;;;;;;4913963;29;20267;-80
2021/03/17 00:18:06;;;;;;;3.08;2.78;;;5.00;75.40;;;;;;4906967;29;20212;-80
2021/03/17 00:20:34;;;;;;;2.20;2.03;;;4.90;75.70;;;;;;4907051;29;20239;-77
2021/03/17 00:23:00;;;;;;;2.60;2.40;;;5.00;76.50;;;;;;4903529;29;20295;-79
2021/03/17 00:25:29;;;;;;;2.70;2.50;;;4.90;76.30;;;;;;4906650;29;20215;-78
2021/03/17 00:27:57;;;;;;;2.70;2.50;;;4.90;77.70;;;;;;4905213;29;20215;-79
2021/03/17 00:30:23;;;;;;;4.20;3.67;;;4.90;78.20;;;;;;4905231;29;20243;-78
2021/03/17 00:32:50;;;;;;;6.65;3.10;;;4.90;78.50;;;;;;4904815;29;20598;-80
2021/03/17 00:35:17;;;;;;;3.00;2.65;;;4.90;78.50;;;;;;4905919;29;20232;-80
2021/03/17 00:37:43;;;;;;;3.15;2.60;;;4.90;78.70;;;;;;4905946;29;20211;-78
2021/03/17 00:40:10;;;;;;;3.38;2.70;;;4.80;79.30;;;;;;4906641;29;20298;-78
2021/03/17 00:42:37;;;;;;;3.00;2.58;;;4.80;79.70;;;;;;4905477;29;20237;-78
2021/03/17 00:45:05;;;;;;;2.33;2.13;;;4.80;80.00;;;;;;4907844;29;20212;-78
2021/03/17 00:47:32;;;;;;;2.85;2.65;;;4.80;80.60;;;;;;4906359;29;20271;-78
2021/03/17 00:49:58;;;;;;;3.55;3.20;;;4.80;80.70;;;;;;4908335;29;20254;-77
2021/03/17 00:52:24;;;;;;;5.38;2.90;;;4.70;81.20;;;;;;4904101;29;20252;-77
2021/03/17 00:54:51;;;;;;;3.67;3.30;;;4.70;81.90;;;;;;4908216;29;20235;-78
2021/03/17 00:57:17;;;;;;;3.08;2.78;;;4.70;81.20;;;;;;4909307;29;20239;-78
2021/03/17 00:59:44;;;;;;;2.55;2.35;;;4.70;81.60;;;;;;4915138;29;20250;-77
2021/03/17 01:02:11;;;;;;;3.50;3.20;;;4.60;81.80;;;;;;4911341;29;20235;-81
2021/03/17 01:04:37;;;;;;;3.28;2.97;;;4.60;81.60;;;;;;4905797;29;20250;-78
2021/03/17 01:07:06;;;;;;;2.80;2.60;;;4.70;82.00;;;;;;4902076;29;20844;-78
2021/03/17 01:09:33;;;;;;;2.47;2.28;;;4.70;82.00;;;;;;4900016;29;20271;-78
2021/03/17 01:12:02;;;;;;;2.97;2.78;;;4.70;82.30;;;;;;4906014;29;20330;-80
2021/03/17 01:14:28;;;;;;;3.60;2.80;;;4.60;81.70;;;;;;4912327;29;20267;-79
2021/03/17 01:16:55;;;;;;;2.85;2.55;;;4.60;82.50;;;;;;4905828;29;20680;-80
2021/03/17 01:19:22;;;;;;;3.97;3.40;;;4.50;82.60;;;;;;4905250;29;20567;-76
2021/03/17 01:21:49;;;;;;;3.30;2.20;;;4.50;82.90;;;;;;4906544;29;20384;-78
2021/03/17 01:24:15;;;;;;;3.50;3.00;;;4.50;82.70;;;;;;4899084;29;20235;-78
2021/03/17 01:26:41;;;;;;;3.47;3.17;;;4.40;82.90;;;;;;4898372;29;20302;-77
2021/03/17 01:29:08;;;;;;;3.25;2.85;;;4.40;83.70;;;;;;4897870;29;20208;-77
2021/03/17 01:31:34;;;;;;;3.28;2.92;;;4.50;84.00;;;;;;4898743;29;20314;-77
2021/03/17 01:34:01;;;;;;;3.78;3.05;;;4.50;84.30;;;;;;4903883;29;20251;-79
2021/03/17 01:36:29;;;;;;;3.42;2.60;;;4.40;84.50;;;;;;4914605;29;20199;-76
2021/03/17 01:38:55;;;;;;;2.78;2.25;;;4.50;85.00;;;;;;4921206;29;20260;-78
2021/03/17 01:41:22;;;;;;;3.25;2.90;;;4.60;84.80;;;;;;4912286;29;20599;-79
2021/03/17 01:43:49;;;;;;;3.70;3.40;;;4.60;84.90;;;;;;4906166;29;20255;-80
2021/03/17 01:46:15;;;;;;;4.28;3.00;;;4.60;84.80;;;;;;4902915;29;20696;-79
2021/03/17 01:48:42;;;;;;;3.70;3.30;;;4.60;84.60;;;;;;4914754;29;20219;-76
2021/03/17 01:51:09;;;;;;;4.07;3.53;;;4.50;84.00;;;;;;4916501;29;20314;-80
2021/03/17 01:53:38;;;;;;;4.20;3.28;;;4.50;84.40;;;;;;4917017;29;20203;-77
2021/03/17 01:56:06;;;;;;;4.07;3.42;;;4.40;85.00;;;;;;4922115;29;20192;-80
2021/03/17 01:58:35;;;;;;;3.55;3.22;;;4.40;86.00;;;;;;4918288;29;20208;-80
2021/03/17 02:01:03;;;;;;;4.00;3.60;;;4.50;86.60;;;;;;4902266;29;20256;-79
2021/03/17 02:03:30;;;;;;;4.50;4.10;;;4.50;86.50;;;;;;4903956;29;20231;-79
2021/03/17 02:05:56;;;;;;;5.82;4.00;;;4.60;86.50;;;;;;4909265;29;20239;-79
2021/03/17 02:08:27;;;;;;;3.67;3.17;;;4.60;86.30;;;;;;4921365;29;20196;-76
2021/03/17 02:10:54;;;;;;;4.78;3.58;;;4.60;85.50;;;;;;4907989;29;20204;-77
2021/03/17 02:13:56;;;;;;;4.18;3.75;;;4.50;85.20;;;;;;4908009;29;20211;-79
2021/03/17 02:16:27;;;;;;;3.92;3.53;;;4.60;86.60;;;;;;4894290;29;20295;-77
2021/03/17 02:19:06;;;;;;;4.40;4.00;;;4.60;86.30;;;;;;4898201;29;20223;-78
2021/03/17 02:22:14;;;;;;;4.05;3.65;;;4.60;86.50;;;;;;4896874;29;20231;-79
2021/03/17 02:24:49;;;;;;;6.15;3.78;;;4.60;85.60;;;;;;4897173;29;20366;-78
2021/03/17 02:27:44;;;;;;;4.13;3.70;;;4.60;85.70;;;;;;4915402;29;20208;-77
2021/03/17 02:30:32;;;;;;;4.25;3.85;;;4.60;85.80;;;;;;4907628;29;20709;-79
2021/03/17 02:33:45;;;;;;;3.80;3.40;;;4.60;85.60;;;;;;4902861;29;20782;-79
2021/03/17 02:36:14;;;;;;;5.18;3.95;;;4.50;85.60;;;;;;4905283;29;20216;-79
2021/03/17 02:38:45;;;;;;;6.55;3.83;;;4.50;85.80;;;;;;4902805;29;20208;-79
2021/03/17 02:41:18;;;;;;;4.10;3.70;;;4.50;87.40;;;;;;4903759;29;20232;-79
2021/03/17 02:43:48;;;;;;;3.63;3.30;;;4.50;87.00;;;;;;4901471;29;20228;-78
2021/03/17 02:46:16;;;;;;;4.97;3.30;;;4.50;86.60;;;;;;4902914;29;20228;-79
2021/03/17 02:48:46;;;;;;;4.25;3.85;;;4.40;86.70;;;;;;4901643;29;20271;-77
2021/03/17 02:51:22;;;;;;;4.05;3.50;;;4.50;87.20;;;;;;4896764;29;20224;-78
2021/03/17 02:53:51;;;;;;;4.68;4.20;;;4.50;86.80;;;;;;4897362;29;20318;-77
2021/03/17 02:56:18;;;;;;;4.15;3.47;;;4.50;87.00;;;;;;4896739;29;20699;-78
2021/03/17 02:58:47;;;;;;;3.90;3.38;;;4.50;86.60;;;;;;4897683;29;20249;-78
2021/03/17 03:01:17;;;;;;;4.80;3.97;;;4.50;86.40;;;;;;4898707;29;20258;-79
2021/03/17 03:03:46;;;;;;;3.88;3.47;;;4.40;86.20;;;;;;4899335;29;20756;-78
2021/03/17 03:06:13;;;;;;;4.82;3.60;;;4.40;87.00;;;;;;4899702;29;20211;-76
2021/03/17 03:08:42;;;;;;;4.00;3.60;;;4.50;86.40;;;;;;4901530;29;20211;-80
2021/03/17 03:11:11;;;;;;;3.85;3.45;;;4.40;86.10;;;;;;4914069;29;20236;-76
2021/03/17 06:43:37;;;;;;;16.80;9.57;;;4.60;93.40;;;;;;4909718;29;20587;-81
2021/03/17 06:46:04;;;;;;;13.27;9.60;;;4.60;92.60;;;;;;4913372;29;20195;-82
2021/03/17 06:48:32;;;;;;;13.60;9.13;;;4.60;92.50;;;;;;4911388;29;20227;-80
2021/03/17 06:51:07;;;;;;;17.90;9.70;;;4.60;92.20;;;;;;4913146;29;20223;-80
2021/03/17 08:52:44;;;;;;;22.75;12.13;;;7.70;61.70;;;;;;5852613;23;20756;-80
2021/03/17 08:55:13;;;;;;;16.65;11.30;;;8.10;62.00;;;;;;4932856;29;20199;-80
2021/03/17 08:57:59;;;;;;;18.95;11.27;;;8.40;59.30;;;;;;4936677;29;20191;-80
2021/03/17 09:00:47;;;;;;;18.50;12.95;;;8.50;59.10;;;;;;4935476;29;20207;-81
2021/03/17 09:03:55;;;;;;;19.77;11.30;;;8.70;58.00;;;;;;4939444;29;20225;-79
2021/03/17 09:06:25;;;;;;;17.13;11.80;;;8.70;54.60;;;;;;4933484;29;20693;-82
2021/03/17 16:29:29;;;;;;;1.63;1.52;;;6.20;46.90;;;;;;4912735;29;20294;-80
2021/03/17 16:31:56;;;;;;;1.70;1.30;;;6.10;45.40;;;;;;4916638;29;20216;-80
2021/03/17 16:34:23;;;;;;;1.38;1.27;;;6.00;46.00;;;;;;4914006;29;20251;-80
2021/03/17 16:36:49;;;;;;;2.95;1.63;;;6.00;46.80;;;;;;4917769;29;20268;-80
2021/03/17 16:39:15;;;;;;;1.42;1.33;;;6.00;46.80;;;;;;4916683;29;20203;-80
2021/03/17 17:23:07;;;;;;;5.03;4.50;;;5.70;49.60;;;;;;4925031;29;20464;-81
2021/03/17 17:25:34;;;;;;;2.60;1.90;;;5.60;50.80;;;;;;4924915;29;20215;-82
2021/03/17 17:28:01;;;;;;;3.33;2.80;;;5.60;50.70;;;;;;4926417;29;20226;-81
2021/03/17 17:30:27;;;;;;;2.65;2.10;;;5.60;51.10;;;;;;4922717;29;20215;-82
2021/03/17 17:32:55;;;;;;;6.88;2.03;;;5.60;50.90;;;;;;4923309;29;20759;-83
2021/03/17 21:46:28;;;;;;;8.90;5.13;;;4.30;58.00;;;;;;4799064;23;20250;-80
2021/03/17 21:52:36;;;;;;;8.57;4.95;;;4.30;57.60;;;;;;4936846;29;20230;-82
2021/03/17 21:55:31;;;;;;;7.97;4.80;;;4.40;57.20;;;;;;4940367;29;20203;-81
2021/03/17 21:58:04;;;;;;;4.82;3.58;;;4.30;56.80;;;;;;4940385;29;20191;-81
2021/03/17 22:07:20;;;;;;;7.00;4.75;;;4.30;56.50;;;;;;4937990;29;20219;-82
2021/03/17 22:10:29;;;;;;;;;;;;;;;;;;;;;
2021/03/17 22:13:12;;;;;;;4.35;3.05;;;4.20;54.60;;;;;;4813394;29;20432;-81
2021/03/17 22:15:43;;;;;;;7.68;3.65;;;4.10;54.50;;;;;;4878202;29;20235;-81
2021/03/17 22:18:12;;;;;;;4.55;3.03;;;4.10;54.50;;;;;;4876002;29;20221;-82
2021/03/17 22:20:42;;;;;;;3.70;2.72;;;4.10;54.60;;;;;;4871648;29;20293;-81
2021/03/17 22:23:14;;;;;;;7.15;2.85;;;4.10;54.50;;;;;;4858216;29;20249;-80
2021/03/17 22:25:47;;;;;;;7.57;3.15;;;4.10;54.50;;;;;;4877887;29;20241;-81
2021/03/17 22:28:57;;;;;;;;;;;;;;;;;;;;;
2021/03/17 22:32:25;;;;;;;;;;;;;;;;;;;;;
2021/03/17 22:39:25;;;;;;;;;;;;;;;;;;;;;
2021/03/17 23:11:03;;;;;;;6.47;3.55;;;3.90;49.70;;;;;;4731592;30;20197;-80
2021/03/17 23:13:32;;;;;;;4.88;3.00;;;3.90;49.70;;;;;;4791895;29;20220;-80
2021/03/17 23:16:04;;;;;;;3.28;2.97;;;3.90;50.40;;;;;;4793169;29;20240;-80
2021/03/17 23:18:46;;;;;;;5.78;3.22;;;3.90;50.10;;;;;;4816848;29;20237;-82
2021/03/17 23:21:39;;;;;;;6.25;3.10;;;3.80;50.40;;;;;;4848874;29;20202;-80
2021/03/17 23:24:37;;;;;;;5.57;2.78;;;3.90;50.70;;;;;;4849285;29;20236;-81
2021/03/17 23:27:16;;;;;;;4.70;2.95;;;3.80;51.30;;;;;;4848932;29;20252;-82
2021/03/17 23:33:01;;;;;;;5.90;3.13;;;3.60;51.90;;;;;;4884932;29;20252;-81
2021/03/17 23:35:40;;;;;;;6.60;3.00;;;3.60;52.20;;;;;;4884982;29;20734;-80
2021/03/17 23:38:14;;;;;;;5.15;3.10;;;3.50;52.60;;;;;;4885558;29;20189;-82
2021/03/17 23:40:58;;;;;;;4.80;2.83;;;3.40;53.10;;;;;;4899609;29;20355;-81
2021/03/17 23:43:29;;;;;;;3.78;2.83;;;3.30;53.80;;;;;;4939480;29;20247;-81
2021/03/17 23:46:01;;;;;;;6.00;2.90;;;3.30;53.20;;;;;;4939506;29;20243;-82
2021/03/17 23:48:31;;;;;;;5.78;3.45;;;3.30;52.80;;;;;;4922081;29;20211;-81
2021/03/17 23:51:04;;;;;;;4.93;2.63;;;3.20;53.00;;;;;;4938844;29;20231;-81
2021/03/17 23:53:36;;;;;;;6.20;3.00;;;3.10;53.70;;;;;;4937405;29;20263;-80
2021/03/17 23:56:11;;;;;;;6.65;3.38;;;3.10;53.70;;;;;;4939979;29;20222;-80
2021/03/17 23:58:42;;;;;;;8.68;3.13;;;3.10;53.70;;;;;;4942490;29;20206;-80
